sensor_id;sensor_type;location;lat;lon;timestamp;temperature;humidity
48535;DHT22;34323;52.022;5.686;2023-09-18T00:00:47;25.10;99.90
48535;DHT22;34323;52.022;5.686;2023-09-18T00:03:20;25.20;99.90
48535;DHT22;34323;52.022;5.686;2023-09-18T00:05:47;25.20;99.90
48535;DHT22;34323;52.022;5.686;2023-09-18T00:08:16;25.20;99.90
48535;DHT22;34323;52.022;5.686;2023-09-18T00:10:42;25.20;99.90
48535;DHT22;34323;52.022;5.686;2023-09-18T00:13:08;25.20;99.90
48535;DHT22;34323;52.022;5.686;2023-09-18T00:15:39;25.20;99.90
48535;DHT22;34323;52.022;5.686;2023-09-18T00:18:06;25.20;99.90
48535;DHT22;34323;52.022;5.686;2023-09-18T00:20:33;25.20;99.90
48535;DHT22;34323;52.022;5.686;2023-09-18T00:23:00;25.20;99.90
48535;DHT22;34323;52.022;5.686;2023-09-18T00:25:26;25.20;99.90
48535;DHT22;34323;52.022;5.686;2023-09-18T00:27:51;25.20;99.90
48535;DHT22;34323;52.022;5.686;2023-09-18T00:30:17;25.20;99.90
48535;DHT22;34323;52.022;5.686;2023-09-18T00:32:43;25.10;99.90
48535;DHT22;34323;52.022;5.686;2023-09-18T00:35:09;25.10;99.90
48535;DHT22;34323;52.022;5.686;2023-09-18T00:37:34;25.10;99.90
48535;DHT22;34323;52.022;5.686;2023-09-18T00:40:02;25.10;99.90
48535;DHT22;34323;52.022;5.686;2023-09-18T00:42:30;25.00;99.90
48535;DHT22;34323;52.022;5.686;2023-09-18T00:44:56;25.00;99.90
48535;DHT22;34323;52.022;5.686;2023-09-18T00:47:23;25.00;99.90
48535;DHT22;34323;52.022;5.686;2023-09-18T00:49:50;25.00;99.90
48535;DHT22;34323;52.022;5.686;2023-09-18T00:52:16;25.00;99.90
48535;DHT22;34323;52.022;5.686;2023-09-18T00:54:43;25.00;99.90
48535;DHT22;34323;52.022;5.686;2023-09-18T00:57:10;25.00;99.90
48535;DHT22;34323;52.022;5.686;2023-09-18T00:59:37;24.90;99.90
48535;DHT22;34323;52.022;5.686;2023-09-18T01:02:03;24.80;99.90
48535;DHT22;34323;52.022;5.686;2023-09-18T01:04:29;24.80;99.90
48535;DHT22;34323;52.022;5.686;2023-09-18T01:06:55;24.80;99.90
48535;DHT22;34323;52.022;5.686;2023-09-18T01:09:23;24.80;99.90
48535;DHT22;34323;52.022;5.686;2023-09-18T01:15:09;24.70;99.90
48535;DHT22;34323;52.022;5.686;2023-09-18T01:17:37;24.60;99.90
48535;DHT22;34323;52.022;5.686;2023-09-18T01:20:09;24.60;99.90
48535;DHT22;34323;52.022;5.686;2023-09-18T01:22:35;24.60;99.90
48535;DHT22;34323;52.022;5.686;2023-09-18T01:25:01;24.70;99.90
48535;DHT22;34323;52.022;5.686;2023-09-18T01:27:28;24.60;99.90
48535;DHT22;34323;52.022;5.686;2023-09-18T01:29:54;24.60;99.90
48535;DHT22;34323;52.022;5.686;2023-09-18T01:32:21;24.70;99.90
48535;DHT22;34323;52.022;5.686;2023-09-18T01:34:53;24.80;99.90
48535;DHT22;34323;52.022;5.686;2023-09-18T01:37:26;24.80;99.90
48535;DHT22;34323;52.022;5.686;2023-09-18T01:39:54;24.80;99.90
48535;DHT22;34323;52.022;5.686;2023-09-18T01:42:20;24.80;99.90
48535;DHT22;34323;52.022;5.686;2023-09-18T01:44:47;24.80;99.90
48535;DHT22;34323;52.022;5.686;2023-09-18T01:47:17;24.80;99.90
48535;DHT22;34323;52.022;5.686;2023-09-18T01:49:43;24.80;99.90
48535;DHT22;34323;52.022;5.686;2023-09-18T01:52:09;24.70;99.90
48535;DHT22;34323;52.022;5.686;2023-09-18T01:54:35;24.80;99.90
48535;DHT22;34323;52.022;5.686;2023-09-18T01:57:02;24.80;99.90
48535;DHT22;34323;52.022;5.686;2023-09-18T01:59:28;24.80;99.90
48535;DHT22;34323;52.022;5.686;2023-09-18T02:01:54;24.80;99.90
48535;DHT22;34323;52.022;5.686;2023-09-18T02:04:21;24.80;99.90
48535;DHT22;34323;52.022;5.686;2023-09-18T02:06:49;24.70;99.90
48535;DHT22;34323;52.022;5.686;2023-09-18T02:09:15;24.60;99.90
48535;DHT22;34323;52.022;5.686;2023-09-18T02:11:44;24.70;99.90
48535;DHT22;34323;52.022;5.686;2023-09-18T02:14:11;24.60;99.90
48535;DHT22;34323;52.022;5.686;2023-09-18T02:16:39;24.50;99.90
48535;DHT22;34323;52.022;5.686;2023-09-18T02:19:09;24.60;99.90
48535;DHT22;34323;52.022;5.686;2023-09-18T02:21:36;24.60;99.90
48535;DHT22;34323;52.022;5.686;2023-09-18T02:24:02;24.70;99.90
48535;DHT22;34323;52.022;5.686;2023-09-18T02:26:29;24.70;99.90
48535;DHT22;34323;52.022;5.686;2023-09-18T02:28:57;24.70;99.90
48535;DHT22;34323;52.022;5.686;2023-09-18T02:31:24;24.60;99.90
48535;DHT22;34323;52.022;5.686;2023-09-18T02:33:50;24.60;99.90
48535;DHT22;34323;52.022;5.686;2023-09-18T02:36:16;24.70;99.90
48535;DHT22;34323;52.022;5.686;2023-09-18T02:38:42;24.80;99.90
48535;DHT22;34323;52.022;5.686;2023-09-18T02:41:08;24.80;99.90
48535;DHT22;34323;52.022;5.686;2023-09-18T02:43:34;25.00;99.90
48535;DHT22;34323;52.022;5.686;2023-09-18T02:46:00;25.00;99.90
48535;DHT22;34323;52.022;5.686;2023-09-18T02:48:26;25.10;99.90
48535;DHT22;34323;52.022;5.686;2023-09-18T02:50:51;25.00;99.90
48535;DHT22;34323;52.022;5.686;2023-09-18T02:53:22;25.10;99.90
48535;DHT22;34323;52.022;5.686;2023-09-18T02:55:50;25.20;99.90
48535;DHT22;34323;52.022;5.686;2023-09-18T02:58:17;25.20;99.90
48535;DHT22;34323;52.022;5.686;2023-09-18T03:00:45;25.20;99.90
48535;DHT22;34323;52.022;5.686;2023-09-18T03:03:12;25.20;99.90
48535;DHT22;34323;52.022;5.686;2023-09-18T03:05:38;25.30;99.90
48535;DHT22;34323;52.022;5.686;2023-09-18T03:08:04;25.30;99.90
48535;DHT22;34323;52.022;5.686;2023-09-18T03:10:34;25.50;99.90
48535;DHT22;34323;52.022;5.686;2023-09-18T03:13:01;25.40;99.90
48535;DHT22;34323;52.022;5.686;2023-09-18T03:15:27;25.40;99.90
48535;DHT22;34323;52.022;5.686;2023-09-18T03:17:52;25.50;99.90
48535;DHT22;34323;52.022;5.686;2023-09-18T03:20:22;25.50;99.90
48535;DHT22;34323;52.022;5.686;2023-09-18T03:22:50;25.50;99.90
48535;DHT22;34323;52.022;5.686;2023-09-18T03:25:15;25.50;99.90
48535;DHT22;34323;52.022;5.686;2023-09-18T03:27:41;25.50;99.90
48535;DHT22;34323;52.022;5.686;2023-09-18T03:30:07;25.50;99.90
48535;DHT22;34323;52.022;5.686;2023-09-18T03:32:33;25.70;99.90
48535;DHT22;34323;52.022;5.686;2023-09-18T03:34:59;25.60;99.90
48535;DHT22;34323;52.022;5.686;2023-09-18T03:37:25;25.60;99.90
48535;DHT22;34323;52.022;5.686;2023-09-18T03:39:50;25.60;99.90
48535;DHT22;34323;52.022;5.686;2023-09-18T03:42:16;25.70;99.90
48535;DHT22;34323;52.022;5.686;2023-09-18T03:44:42;25.60;99.90
48535;DHT22;34323;52.022;5.686;2023-09-18T03:47:07;25.70;99.90
48535;DHT22;34323;52.022;5.686;2023-09-18T03:49:33;25.60;99.90
48535;DHT22;34323;52.022;5.686;2023-09-18T03:51:59;25.70;99.90
48535;DHT22;34323;52.022;5.686;2023-09-18T03:54:24;25.80;99.90
48535;DHT22;34323;52.022;5.686;2023-09-18T03:56:50;25.90;99.90
48535;DHT22;34323;52.022;5.686;2023-09-18T03:59:16;25.80;99.90
48535;DHT22;34323;52.022;5.686;2023-09-18T04:01:41;25.70;99.90
48535;DHT22;34323;52.022;5.686;2023-09-18T04:04:07;25.70;99.90
48535;DHT22;34323;52.022;5.686;2023-09-18T04:06:40;25.60;99.90
48535;DHT22;34323;52.022;5.686;2023-09-18T04:09:06;25.70;99.90
48535;DHT22;34323;52.022;5.686;2023-09-18T04:11:31;25.80;99.90
48535;DHT22;34323;52.022;5.686;2023-09-18T04:14:00;25.60;99.90
48535;DHT22;34323;52.022;5.686;2023-09-18T04:16:26;25.70;99.90
48535;DHT22;34323;52.022;5.686;2023-09-18T04:19:10;25.80;99.90
48535;DHT22;34323;52.022;5.686;2023-09-18T04:21:36;25.80;99.90
48535;DHT22;34323;52.022;5.686;2023-09-18T04:24:02;25.70;99.90
48535;DHT22;34323;52.022;5.686;2023-09-18T04:26:28;25.60;99.90
48535;DHT22;34323;52.022;5.686;2023-09-18T04:28:57;25.60;99.90
48535;DHT22;34323;52.022;5.686;2023-09-18T04:31:23;25.60;99.90
48535;DHT22;34323;52.022;5.686;2023-09-18T04:33:49;25.50;99.90
48535;DHT22;34323;52.022;5.686;2023-09-18T04:36:15;25.50;99.90
48535;DHT22;34323;52.022;5.686;2023-09-18T04:38:41;25.50;99.90
48535;DHT22;34323;52.022;5.686;2023-09-18T04:41:07;25.30;99.90
48535;DHT22;34323;52.022;5.686;2023-09-18T04:43:36;25.40;99.90
48535;DHT22;34323;52.022;5.686;2023-09-18T04:46:04;25.70;99.90
48535;DHT22;34323;52.022;5.686;2023-09-18T04:48:30;25.50;99.90
48535;DHT22;34323;52.022;5.686;2023-09-18T04:50:57;25.60;99.90
48535;DHT22;34323;52.022;5.686;2023-09-18T04:53:23;25.50;99.90
48535;DHT22;34323;52.022;5.686;2023-09-18T04:55:49;25.50;99.90
48535;DHT22;34323;52.022;5.686;2023-09-18T04:58:17;25.30;99.90
48535;DHT22;34323;52.022;5.686;2023-09-18T05:00:43;25.30;99.90
48535;DHT22;34323;52.022;5.686;2023-09-18T05:03:10;25.10;99.90
48535;DHT22;34323;52.022;5.686;2023-09-18T05:05:36;25.10;99.90
48535;DHT22;34323;52.022;5.686;2023-09-18T05:08:03;25.20;99.90
48535;DHT22;34323;52.022;5.686;2023-09-18T05:10:30;25.20;99.90
48535;DHT22;34323;52.022;5.686;2023-09-18T05:12:56;25.20;99.90
48535;DHT22;34323;52.022;5.686;2023-09-18T05:15:27;25.20;99.90
48535;DHT22;34323;52.022;5.686;2023-09-18T05:17:55;25.40;99.90
48535;DHT22;34323;52.022;5.686;2023-09-18T05:20:24;25.50;99.90
48535;DHT22;34323;52.022;5.686;2023-09-18T05:22:51;25.50;99.90
48535;DHT22;34323;52.022;5.686;2023-09-18T05:25:18;25.50;99.90
48535;DHT22;34323;52.022;5.686;2023-09-18T05:27:45;25.60;99.90
48535;DHT22;34323;52.022;5.686;2023-09-18T05:30:14;25.70;99.90
48535;DHT22;34323;52.022;5.686;2023-09-18T05:32:42;25.80;99.90
48535;DHT22;34323;52.022;5.686;2023-09-18T05:35:08;26.00;99.90
48535;DHT22;34323;52.022;5.686;2023-09-18T05:37:37;26.10;99.90
48535;DHT22;34323;52.022;5.686;2023-09-18T05:40:07;26.10;99.90
48535;DHT22;34323;52.022;5.686;2023-09-18T05:42:35;26.10;99.90
48535;DHT22;34323;52.022;5.686;2023-09-18T05:45:02;26.20;99.90
48535;DHT22;34323;52.022;5.686;2023-09-18T05:47:30;26.20;99.90
48535;DHT22;34323;52.022;5.686;2023-09-18T05:49:57;26.20;99.90
48535;DHT22;34323;52.022;5.686;2023-09-18T05:52:23;26.20;99.90
48535;DHT22;34323;52.022;5.686;2023-09-18T05:54:50;26.20;99.90
48535;DHT22;34323;52.022;5.686;2023-09-18T05:57:15;26.30;99.90
48535;DHT22;34323;52.022;5.686;2023-09-18T05:59:42;26.40;99.90
48535;DHT22;34323;52.022;5.686;2023-09-18T06:02:11;26.50;99.90
48535;DHT22;34323;52.022;5.686;2023-09-18T06:04:36;26.40;99.90
48535;DHT22;34323;52.022;5.686;2023-09-18T06:07:05;26.40;99.90
48535;DHT22;34323;52.022;5.686;2023-09-18T06:09:31;26.50;99.90
48535;DHT22;34323;52.022;5.686;2023-09-18T06:11:57;26.40;99.90
48535;DHT22;34323;52.022;5.686;2023-09-18T06:14:25;26.40;99.90
48535;DHT22;34323;52.022;5.686;2023-09-18T06:16:51;26.50;99.90
48535;DHT22;34323;52.022;5.686;2023-09-18T06:19:17;26.60;99.90
48535;DHT22;34323;52.022;5.686;2023-09-18T06:21:43;26.70;99.90
48535;DHT22;34323;52.022;5.686;2023-09-18T06:24:09;26.70;99.90
48535;DHT22;34323;52.022;5.686;2023-09-18T06:26:35;26.60;99.90
48535;DHT22;34323;52.022;5.686;2023-09-18T06:29:01;26.70;99.90
48535;DHT22;34323;52.022;5.686;2023-09-18T06:31:28;26.60;99.90
48535;DHT22;34323;52.022;5.686;2023-09-18T06:33:54;26.50;99.90
48535;DHT22;34323;52.022;5.686;2023-09-18T06:36:19;26.60;99.90
48535;DHT22;34323;52.022;5.686;2023-09-18T06:38:46;26.60;99.90
48535;DHT22;34323;52.022;5.686;2023-09-18T06:41:12;26.40;99.90
48535;DHT22;34323;52.022;5.686;2023-09-18T06:43:37;26.30;99.90
48535;DHT22;34323;52.022;5.686;2023-09-18T06:46:03;26.30;99.90
48535;DHT22;34323;52.022;5.686;2023-09-18T06:48:29;26.40;99.90
48535;DHT22;34323;52.022;5.686;2023-09-18T06:50:58;26.50;99.90
48535;DHT22;34323;52.022;5.686;2023-09-18T06:53:26;26.40;99.90
48535;DHT22;34323;52.022;5.686;2023-09-18T06:55:53;26.30;99.90
48535;DHT22;34323;52.022;5.686;2023-09-18T06:58:19;26.30;99.90
48535;DHT22;34323;52.022;5.686;2023-09-18T07:00:45;26.30;99.90
48535;DHT22;34323;52.022;5.686;2023-09-18T07:03:11;26.30;99.90
48535;DHT22;34323;52.022;5.686;2023-09-18T07:05:37;26.30;99.90
48535;DHT22;34323;52.022;5.686;2023-09-18T07:08:03;26.30;99.90
48535;DHT22;34323;52.022;5.686;2023-09-18T07:10:31;26.30;99.90
48535;DHT22;34323;52.022;5.686;2023-09-18T07:12:56;26.20;99.90
48535;DHT22;34323;52.022;5.686;2023-09-18T07:15:22;26.00;99.90
48535;DHT22;34323;52.022;5.686;2023-09-18T07:17:48;25.90;99.90
48535;DHT22;34323;52.022;5.686;2023-09-18T07:20:14;25.90;99.90
48535;DHT22;34323;52.022;5.686;2023-09-18T07:22:44;25.90;99.90
48535;DHT22;34323;52.022;5.686;2023-09-18T07:25:10;25.90;99.90
48535;DHT22;34323;52.022;5.686;2023-09-18T07:27:36;25.90;99.90
48535;DHT22;34323;52.022;5.686;2023-09-18T07:30:04;26.00;99.90
48535;DHT22;34323;52.022;5.686;2023-09-18T07:32:30;26.00;99.90
48535;DHT22;34323;52.022;5.686;2023-09-18T07:34:56;26.00;99.90
48535;DHT22;34323;52.022;5.686;2023-09-18T07:37:22;26.00;99.90
48535;DHT22;34323;52.022;5.686;2023-09-18T07:39:49;26.20;99.90
48535;DHT22;34323;52.022;5.686;2023-09-18T07:42:15;26.20;99.90
48535;DHT22;34323;52.022;5.686;2023-09-18T07:44:41;26.10;99.90
48535;DHT22;34323;52.022;5.686;2023-09-18T07:47:06;26.00;99.90
48535;DHT22;34323;52.022;5.686;2023-09-18T07:49:33;25.90;99.90
48535;DHT22;34323;52.022;5.686;2023-09-18T07:51:59;25.90;99.90
48535;DHT22;34323;52.022;5.686;2023-09-18T07:54:24;25.80;99.90
48535;DHT22;34323;52.022;5.686;2023-09-18T07:56:50;25.80;99.90
48535;DHT22;34323;52.022;5.686;2023-09-18T07:59:16;25.80;99.90
48535;DHT22;34323;52.022;5.686;2023-09-18T08:01:41;25.60;99.90
48535;DHT22;34323;52.022;5.686;2023-09-18T08:04:07;25.50;99.90
48535;DHT22;34323;52.022;5.686;2023-09-18T08:06:33;25.60;99.90
48535;DHT22;34323;52.022;5.686;2023-09-18T08:08:59;25.70;99.90
48535;DHT22;34323;52.022;5.686;2023-09-18T08:11:25;25.80;99.90
48535;DHT22;34323;52.022;5.686;2023-09-18T08:13:51;25.90;99.90
48535;DHT22;34323;52.022;5.686;2023-09-18T08:16:17;26.00;99.90
48535;DHT22;34323;52.022;5.686;2023-09-18T08:18:43;26.00;99.90
48535;DHT22;34323;52.022;5.686;2023-09-18T08:21:09;26.00;99.90
48535;DHT22;34323;52.022;5.686;2023-09-18T08:23:35;26.00;99.90
48535;DHT22;34323;52.022;5.686;2023-09-18T08:26:02;26.00;99.90
48535;DHT22;34323;52.022;5.686;2023-09-18T08:28:29;26.00;99.90
48535;DHT22;34323;52.022;5.686;2023-09-18T08:30:55;25.90;99.90
48535;DHT22;34323;52.022;5.686;2023-09-18T08:33:21;26.10;99.90
48535;DHT22;34323;52.022;5.686;2023-09-18T08:35:47;26.10;99.90
48535;DHT22;34323;52.022;5.686;2023-09-18T08:38:15;26.00;99.90
48535;DHT22;34323;52.022;5.686;2023-09-18T08:40:41;25.80;99.90
48535;DHT22;34323;52.022;5.686;2023-09-18T08:43:12;25.80;99.90
48535;DHT22;34323;52.022;5.686;2023-09-18T08:45:52;25.90;99.90
48535;DHT22;34323;52.022;5.686;2023-09-18T08:48:19;25.90;99.90
48535;DHT22;34323;52.022;5.686;2023-09-18T08:50:45;25.90;99.90
48535;DHT22;34323;52.022;5.686;2023-09-18T08:53:11;25.70;99.90
48535;DHT22;34323;52.022;5.686;2023-09-18T08:55:37;25.60;99.90
48535;DHT22;34323;52.022;5.686;2023-09-18T08:58:03;25.60;99.90
48535;DHT22;34323;52.022;5.686;2023-09-18T09:00:29;25.50;99.90
48535;DHT22;34323;52.022;5.686;2023-09-18T09:02:55;25.60;99.90
48535;DHT22;34323;52.022;5.686;2023-09-18T09:05:21;25.50;99.90
48535;DHT22;34323;52.022;5.686;2023-09-18T09:07:49;25.30;99.90
48535;DHT22;34323;52.022;5.686;2023-09-18T09:10:14;25.20;99.90
48535;DHT22;34323;52.022;5.686;2023-09-18T09:12:53;25.10;99.90
48535;DHT22;34323;52.022;5.686;2023-09-18T09:15:24;25.20;99.90
48535;DHT22;34323;52.022;5.686;2023-09-18T09:17:52;25.20;99.90
48535;DHT22;34323;52.022;5.686;2023-09-18T09:20:18;25.30;99.90
48535;DHT22;34323;52.022;5.686;2023-09-18T09:22:44;25.60;99.90
48535;DHT22;34323;52.022;5.686;2023-09-18T09:25:24;25.50;99.90
48535;DHT22;34323;52.022;5.686;2023-09-18T09:27:52;25.50;99.90
48535;DHT22;34323;52.022;5.686;2023-09-18T09:30:20;25.50;99.90
48535;DHT22;34323;52.022;5.686;2023-09-18T09:32:52;25.50;99.90
48535;DHT22;34323;52.022;5.686;2023-09-18T09:35:26;25.60;99.90
48535;DHT22;34323;52.022;5.686;2023-09-18T09:37:57;25.60;99.90
48535;DHT22;34323;52.022;5.686;2023-09-18T09:40:24;25.60;99.90
48535;DHT22;34323;52.022;5.686;2023-09-18T09:42:55;25.70;99.90
48535;DHT22;34323;52.022;5.686;2023-09-18T09:45:27;25.80;99.90
48535;DHT22;34323;52.022;5.686;2023-09-18T09:47:54;25.80;99.90
48535;DHT22;34323;52.022;5.686;2023-09-18T09:50:20;25.90;99.90
48535;DHT22;34323;52.022;5.686;2023-09-18T09:52:49;26.00;99.90
48535;DHT22;34323;52.022;5.686;2023-09-18T09:55:30;26.10;99.90
48535;DHT22;34323;52.022;5.686;2023-09-18T09:58:07;26.50;99.90
48535;DHT22;34323;52.022;5.686;2023-09-18T10:03:13;27.10;99.90
48535;DHT22;34323;52.022;5.686;2023-09-18T10:05:43;27.10;99.90
48535;DHT22;34323;52.022;5.686;2023-09-18T10:08:27;27.00;99.90
48535;DHT22;34323;52.022;5.686;2023-09-18T10:11:01;26.80;99.90
48535;DHT22;34323;52.022;5.686;2023-09-18T10:16:13;26.60;99.90
48535;DHT22;34323;52.022;5.686;2023-09-18T10:21:56;26.60;99.90
48535;DHT22;34323;52.022;5.686;2023-09-18T10:24:30;26.50;99.90
48535;DHT22;34323;52.022;5.686;2023-09-18T10:27:00;26.20;99.90
48535;DHT22;34323;52.022;5.686;2023-09-18T10:29:32;26.10;99.90
48535;DHT22;34323;52.022;5.686;2023-09-18T10:31:58;26.10;99.90
48535;DHT22;34323;52.022;5.686;2023-09-18T10:34:25;26.20;99.90
48535;DHT22;34323;52.022;5.686;2023-09-18T10:36:54;26.40;99.90
48535;DHT22;34323;52.022;5.686;2023-09-18T10:39:24;26.60;99.90
48535;DHT22;34323;52.022;5.686;2023-09-18T10:41:53;26.60;99.90
48535;DHT22;34323;52.022;5.686;2023-09-18T10:44:19;26.50;99.90
48535;DHT22;34323;52.022;5.686;2023-09-18T10:46:49;26.40;99.90
48535;DHT22;34323;52.022;5.686;2023-09-18T10:49:16;26.20;99.90
48535;DHT22;34323;52.022;5.686;2023-09-18T10:51:42;26.20;99.90
48535;DHT22;34323;52.022;5.686;2023-09-18T10:54:09;26.20;99.90
48535;DHT22;34323;52.022;5.686;2023-09-18T10:56:35;26.00;99.90
48535;DHT22;34323;52.022;5.686;2023-09-18T10:59:06;25.80;99.90
48535;DHT22;34323;52.022;5.686;2023-09-18T11:01:34;25.90;99.90
48535;DHT22;34323;52.022;5.686;2023-09-18T11:04:06;26.00;99.90
48535;DHT22;34323;52.022;5.686;2023-09-18T11:09:26;26.50;99.90
48535;DHT22;34323;52.022;5.686;2023-09-18T11:12:14;26.70;99.90
48535;DHT22;34323;52.022;5.686;2023-09-18T11:17:36;26.70;99.90
48535;DHT22;34323;52.022;5.686;2023-09-18T11:20:23;27.10;99.90
48535;DHT22;34323;52.022;5.686;2023-09-18T11:22:56;27.50;99.90
48535;DHT22;34323;52.022;5.686;2023-09-18T11:25:44;27.50;99.90
48535;DHT22;34323;52.022;5.686;2023-09-18T11:28:23;27.50;99.90
48535;DHT22;34323;52.022;5.686;2023-09-18T11:30:51;27.00;99.90
48535;DHT22;34323;52.022;5.686;2023-09-18T11:33:38;26.90;99.90
48535;DHT22;34323;52.022;5.686;2023-09-18T11:36:12;27.10;99.90
48535;DHT22;34323;52.022;5.686;2023-09-18T11:39:00;27.30;99.90
48535;DHT22;34323;52.022;5.686;2023-09-18T11:41:30;27.20;99.90
48535;DHT22;34323;52.022;5.686;2023-09-18T11:46:46;27.40;99.90
48535;DHT22;34323;52.022;5.686;2023-09-18T11:49:13;27.40;99.90
48535;DHT22;34323;52.022;5.686;2023-09-18T11:51:40;27.30;99.90
48535;DHT22;34323;52.022;5.686;2023-09-18T11:54:08;27.30;99.90
48535;DHT22;34323;52.022;5.686;2023-09-18T11:56:34;27.40;99.90
48535;DHT22;34323;52.022;5.686;2023-09-18T11:59:00;27.50;99.90
48535;DHT22;34323;52.022;5.686;2023-09-18T12:01:31;27.80;99.90
48535;DHT22;34323;52.022;5.686;2023-09-18T12:04:02;28.00;99.90
48535;DHT22;34323;52.022;5.686;2023-09-18T12:06:28;27.80;99.90
48535;DHT22;34323;52.022;5.686;2023-09-18T12:08:54;27.60;99.90
48535;DHT22;34323;52.022;5.686;2023-09-18T12:11:21;27.40;99.90
48535;DHT22;34323;52.022;5.686;2023-09-18T12:13:55;27.50;99.90
48535;DHT22;34323;52.022;5.686;2023-09-18T12:16:21;27.40;99.90
48535;DHT22;34323;52.022;5.686;2023-09-18T12:18:48;27.40;99.90
48535;DHT22;34323;52.022;5.686;2023-09-18T12:21:16;27.20;99.90
48535;DHT22;34323;52.022;5.686;2023-09-18T12:23:44;26.60;99.90
48535;DHT22;34323;52.022;5.686;2023-09-18T12:26:14;26.40;99.90
48535;DHT22;34323;52.022;5.686;2023-09-18T12:28:41;26.80;99.90
48535;DHT22;34323;52.022;5.686;2023-09-18T12:31:11;27.30;99.90
48535;DHT22;34323;52.022;5.686;2023-09-18T12:33:38;27.60;99.90
48535;DHT22;34323;52.022;5.686;2023-09-18T12:36:05;27.80;99.90
48535;DHT22;34323;52.022;5.686;2023-09-18T12:38:32;27.70;99.90
48535;DHT22;34323;52.022;5.686;2023-09-18T12:40:59;27.70;99.90
48535;DHT22;34323;52.022;5.686;2023-09-18T12:43:37;27.80;99.90
48535;DHT22;34323;52.022;5.686;2023-09-18T12:46:04;28.00;99.90
48535;DHT22;34323;52.022;5.686;2023-09-18T12:48:30;28.20;99.90
48535;DHT22;34323;52.022;5.686;2023-09-18T12:51:02;28.00;99.90
48535;DHT22;34323;52.022;5.686;2023-09-18T12:53:29;28.30;99.90
48535;DHT22;34323;52.022;5.686;2023-09-18T12:55:55;28.60;99.90
48535;DHT22;34323;52.022;5.686;2023-09-18T12:58:29;28.40;99.90
48535;DHT22;34323;52.022;5.686;2023-09-18T13:00:55;28.40;99.90
48535;DHT22;34323;52.022;5.686;2023-09-18T13:03:20;28.60;99.90
48535;DHT22;34323;52.022;5.686;2023-09-18T13:05:46;28.70;99.90
48535;DHT22;34323;52.022;5.686;2023-09-18T13:08:13;28.70;99.90
48535;DHT22;34323;52.022;5.686;2023-09-18T13:10:47;28.70;99.90
48535;DHT22;34323;52.022;5.686;2023-09-18T13:13:22;29.20;99.90
48535;DHT22;34323;52.022;5.686;2023-09-18T13:15:48;30.10;99.90
48535;DHT22;34323;52.022;5.686;2023-09-18T13:18:15;30.90;99.90
48535;DHT22;34323;52.022;5.686;2023-09-18T13:20:41;31.70;99.90
48535;DHT22;34323;52.022;5.686;2023-09-18T13:23:08;32.40;99.90
48535;DHT22;34323;52.022;5.686;2023-09-18T13:25:35;33.10;99.90
48535;DHT22;34323;52.022;5.686;2023-09-18T13:28:05;33.20;99.90
48535;DHT22;34323;52.022;5.686;2023-09-18T13:30:31;33.40;99.90
48535;DHT22;34323;52.022;5.686;2023-09-18T13:33:06;33.90;99.90
48535;DHT22;34323;52.022;5.686;2023-09-18T13:35:33;33.90;99.90
48535;DHT22;34323;52.022;5.686;2023-09-18T13:37:59;34.10;99.90
48535;DHT22;34323;52.022;5.686;2023-09-18T13:40:25;33.70;99.90
48535;DHT22;34323;52.022;5.686;2023-09-18T13:42:51;33.40;99.90
48535;DHT22;34323;52.022;5.686;2023-09-18T13:45:17;33.60;99.90
48535;DHT22;34323;52.022;5.686;2023-09-18T13:47:43;34.50;99.90
48535;DHT22;34323;52.022;5.686;2023-09-18T13:50:09;34.90;99.90
48535;DHT22;34323;52.022;5.686;2023-09-18T13:52:36;35.80;99.90
48535;DHT22;34323;52.022;5.686;2023-09-18T13:55:03;36.00;99.90
48535;DHT22;34323;52.022;5.686;2023-09-18T13:57:32;36.50;99.90
48535;DHT22;34323;52.022;5.686;2023-09-18T13:59:59;37.10;99.90
48535;DHT22;34323;52.022;5.686;2023-09-18T14:02:25;37.50;99.90
48535;DHT22;34323;52.022;5.686;2023-09-18T14:04:54;37.50;99.90
48535;DHT22;34323;52.022;5.686;2023-09-18T14:07:20;37.00;99.90
48535;DHT22;34323;52.022;5.686;2023-09-18T14:09:45;36.90;99.90
48535;DHT22;34323;52.022;5.686;2023-09-18T14:12:12;37.50;99.90
48535;DHT22;34323;52.022;5.686;2023-09-18T14:14:38;37.70;99.90
48535;DHT22;34323;52.022;5.686;2023-09-18T14:17:05;37.90;99.90
48535;DHT22;34323;52.022;5.686;2023-09-18T14:19:31;38.00;99.90
48535;DHT22;34323;52.022;5.686;2023-09-18T14:21:57;37.40;99.60
48535;DHT22;34323;52.022;5.686;2023-09-18T14:24:23;37.50;99.90
48535;DHT22;34323;52.022;5.686;2023-09-18T14:26:52;38.00;99.90
48535;DHT22;34323;52.022;5.686;2023-09-18T14:29:17;38.20;99.30
48535;DHT22;34323;52.022;5.686;2023-09-18T14:31:43;37.00;99.50
48535;DHT22;34323;52.022;5.686;2023-09-18T14:34:09;36.20;99.40
48535;DHT22;34323;52.022;5.686;2023-09-18T14:36:35;34.60;99.90
48535;DHT22;34323;52.022;5.686;2023-09-18T14:39:01;33.40;99.90
48535;DHT22;34323;52.022;5.686;2023-09-18T14:41:27;33.50;99.90
48535;DHT22;34323;52.022;5.686;2023-09-18T14:43:53;33.20;99.90
48535;DHT22;34323;52.022;5.686;2023-09-18T14:46:19;32.80;99.90
48535;DHT22;34323;52.022;5.686;2023-09-18T14:48:45;33.10;99.90
48535;DHT22;34323;52.022;5.686;2023-09-18T14:51:11;32.70;99.90
48535;DHT22;34323;52.022;5.686;2023-09-18T14:53:37;32.20;99.90
48535;DHT22;34323;52.022;5.686;2023-09-18T14:56:02;31.40;99.90
48535;DHT22;34323;52.022;5.686;2023-09-18T14:58:29;30.80;99.90
48535;DHT22;34323;52.022;5.686;2023-09-18T15:00:56;30.60;99.90
48535;DHT22;34323;52.022;5.686;2023-09-18T15:03:22;30.20;99.90
48535;DHT22;34323;52.022;5.686;2023-09-18T15:05:51;29.80;99.90
48535;DHT22;34323;52.022;5.686;2023-09-18T15:08:19;29.70;99.90
48535;DHT22;34323;52.022;5.686;2023-09-18T15:10:47;29.70;99.90
48535;DHT22;34323;52.022;5.686;2023-09-18T15:13:13;29.60;99.90
48535;DHT22;34323;52.022;5.686;2023-09-18T15:15:43;29.70;99.90
48535;DHT22;34323;52.022;5.686;2023-09-18T15:18:09;29.50;99.90
48535;DHT22;34323;52.022;5.686;2023-09-18T15:20:35;29.40;99.90
48535;DHT22;34323;52.022;5.686;2023-09-18T15:23:01;28.70;99.90
48535;DHT22;34323;52.022;5.686;2023-09-18T15:25:27;27.80;99.90
48535;DHT22;34323;52.022;5.686;2023-09-18T15:27:53;27.30;99.90
48535;DHT22;34323;52.022;5.686;2023-09-18T15:30:20;26.30;99.90
48535;DHT22;34323;52.022;5.686;2023-09-18T15:32:51;25.80;99.90
48535;DHT22;34323;52.022;5.686;2023-09-18T15:35:21;25.30;99.90
48535;DHT22;34323;52.022;5.686;2023-09-18T15:37:48;24.80;99.90
48535;DHT22;34323;52.022;5.686;2023-09-18T15:40:14;24.70;99.90
48535;DHT22;34323;52.022;5.686;2023-09-18T15:42:41;24.30;99.90
48535;DHT22;34323;52.022;5.686;2023-09-18T15:45:08;24.00;99.90
48535;DHT22;34323;52.022;5.686;2023-09-18T15:47:37;23.60;99.90
48535;DHT22;34323;52.022;5.686;2023-09-18T15:50:03;23.50;99.90
48535;DHT22;34323;52.022;5.686;2023-09-18T15:52:30;23.60;99.90